sensor_id;sensor_type;location;lat;lon;timestamp;P1;durP1;ratioP1;P2;durP2;ratioP2
75038;SDS011;63609;49.992;14.512;2023-07-13T00:03:31;8.65;;;5.32;;
75038;SDS011;63609;49.992;14.512;2023-07-13T00:06:02;7.15;;;5.10;;
75038;SDS011;63609;49.992;14.512;2023-07-13T00:08:30;10.10;;;5.32;;
75038;SDS011;63609;49.992;14.512;2023-07-13T00:11:02;7.50;;;5.15;;
75038;SDS011;63609;49.992;14.512;2023-07-13T00:13:30;11.43;;;5.28;;
75038;SDS011;63609;49.992;14.512;2023-07-13T00:15:57;9.30;;;5.60;;
75038;SDS011;63609;49.992;14.512;2023-07-13T00:18:25;8.02;;;5.70;;
75038;SDS011;63609;49.992;14.512;2023-07-13T00:20:52;8.70;;;5.47;;
75038;SDS011;63609;49.992;14.512;2023-07-13T00:23:19;8.45;;;5.97;;
75038;SDS011;63609;49.992;14.512;2023-07-13T00:25:45;8.43;;;5.18;;
75038;SDS011;63609;49.992;14.512;2023-07-13T00:28:12;9.50;;;5.28;;
75038;SDS011;63609;49.992;14.512;2023-07-13T00:30:39;7.65;;;5.10;;
75038;SDS011;63609;49.992;14.512;2023-07-13T00:33:06;8.43;;;5.18;;
75038;SDS011;63609;49.992;14.512;2023-07-13T00:35:44;9.15;;;5.47;;
75038;SDS011;63609;49.992;14.512;2023-07-13T00:38:11;11.02;;;5.15;;
75038;SDS011;63609;49.992;14.512;2023-07-13T00:40:39;8.93;;;5.53;;
75038;SDS011;63609;49.992;14.512;2023-07-13T00:43:14;8.75;;;5.68;;
75038;SDS011;63609;49.992;14.512;2023-07-13T00:48:16;12.50;;;5.60;;
75038;SDS011;63609;49.992;14.512;2023-07-13T00:50:48;8.93;;;5.63;;
75038;SDS011;63609;49.992;14.512;2023-07-13T00:53:19;9.15;;;5.75;;
75038;SDS011;63609;49.992;14.512;2023-07-13T00:55:47;10.48;;;5.38;;
75038;SDS011;63609;49.992;14.512;2023-07-13T00:58:16;9.75;;;5.55;;
75038;SDS011;63609;49.992;14.512;2023-07-13T01:00:43;7.22;;;4.97;;
75038;SDS011;63609;49.992;14.512;2023-07-13T01:03:13;8.10;;;4.95;;
75038;SDS011;63609;49.992;14.512;2023-07-13T01:05:40;8.23;;;5.55;;
75038;SDS011;63609;49.992;14.512;2023-07-13T01:08:07;8.63;;;5.38;;
75038;SDS011;63609;49.992;14.512;2023-07-13T01:10:35;10.90;;;5.03;;
75038;SDS011;63609;49.992;14.512;2023-07-13T01:13:06;10.63;;;5.65;;
75038;SDS011;63609;49.992;14.512;2023-07-13T01:18:01;7.63;;;5.60;;
75038;SDS011;63609;49.992;14.512;2023-07-13T01:20:30;8.77;;;5.80;;
75038;SDS011;63609;49.992;14.512;2023-07-13T01:23:09;7.78;;;5.43;;
75038;SDS011;63609;49.992;14.512;2023-07-13T01:25:39;8.57;;;5.25;;
75038;SDS011;63609;49.992;14.512;2023-07-13T01:28:07;9.50;;;5.95;;
75038;SDS011;63609;49.992;14.512;2023-07-13T01:30:38;7.05;;;5.05;;
75038;SDS011;63609;49.992;14.512;2023-07-13T01:33:07;8.57;;;5.18;;
75038;SDS011;63609;49.992;14.512;2023-07-13T01:35:36;10.75;;;5.22;;
75038;SDS011;63609;49.992;14.512;2023-07-13T01:38:03;9.02;;;4.88;;
75038;SDS011;63609;49.992;14.512;2023-07-13T01:40:31;7.50;;;4.25;;
75038;SDS011;63609;49.992;14.512;2023-07-13T01:42:58;10.07;;;5.63;;
75038;SDS011;63609;49.992;14.512;2023-07-13T01:45:26;8.50;;;5.20;;
75038;SDS011;63609;49.992;14.512;2023-07-13T01:47:52;8.80;;;5.20;;
75038;SDS011;63609;49.992;14.512;2023-07-13T01:50:19;8.60;;;4.97;;
75038;SDS011;63609;49.992;14.512;2023-07-13T01:52:50;8.25;;;4.90;;
75038;SDS011;63609;49.992;14.512;2023-07-13T01:55:17;7.72;;;4.78;;
75038;SDS011;63609;49.992;14.512;2023-07-13T01:57:44;6.35;;;4.95;;
75038;SDS011;63609;49.992;14.512;2023-07-13T02:00:11;8.38;;;4.70;;
75038;SDS011;63609;49.992;14.512;2023-07-13T02:02:45;8.07;;;4.95;;
75038;SDS011;63609;49.992;14.512;2023-07-13T02:05:20;7.70;;;4.45;;
75038;SDS011;63609;49.992;14.512;2023-07-13T02:07:47;7.93;;;4.28;;
75038;SDS011;63609;49.992;14.512;2023-07-13T02:10:14;7.97;;;4.93;;
75038;SDS011;63609;49.992;14.512;2023-07-13T02:12:43;8.68;;;4.65;;
75038;SDS011;63609;49.992;14.512;2023-07-13T02:15:11;6.60;;;4.57;;
75038;SDS011;63609;49.992;14.512;2023-07-13T02:17:38;8.43;;;4.30;;
75038;SDS011;63609;49.992;14.512;2023-07-13T02:20:05;6.70;;;4.93;;
75038;SDS011;63609;49.992;14.512;2023-07-13T02:22:33;7.20;;;4.63;;
75038;SDS011;63609;49.992;14.512;2023-07-13T02:25:00;8.38;;;4.80;;
75038;SDS011;63609;49.992;14.512;2023-07-13T02:27:27;7.25;;;5.00;;
75038;SDS011;63609;49.992;14.512;2023-07-13T02:29:54;6.20;;;4.47;;
75038;SDS011;63609;49.992;14.512;2023-07-13T02:32:21;8.15;;;4.78;;
75038;SDS011;63609;49.992;14.512;2023-07-13T02:34:50;7.18;;;4.65;;
75038;SDS011;63609;49.992;14.512;2023-07-13T02:37:18;7.25;;;4.35;;
75038;SDS011;63609;49.992;14.512;2023-07-13T02:39:46;9.23;;;4.78;;
75038;SDS011;63609;49.992;14.512;2023-07-13T02:42:12;7.82;;;4.25;;
75038;SDS011;63609;49.992;14.512;2023-07-13T02:44:39;7.57;;;4.55;;
75038;SDS011;63609;49.992;14.512;2023-07-13T02:47:06;7.78;;;4.53;;
75038;SDS011;63609;49.992;14.512;2023-07-13T02:49:33;6.20;;;4.10;;
75038;SDS011;63609;49.992;14.512;2023-07-13T02:52:00;7.63;;;4.60;;
75038;SDS011;63609;49.992;14.512;2023-07-13T02:54:29;7.70;;;4.20;;
75038;SDS011;63609;49.992;14.512;2023-07-13T02:56:56;8.55;;;4.30;;
75038;SDS011;63609;49.992;14.512;2023-07-13T02:59:23;8.23;;;4.88;;
75038;SDS011;63609;49.992;14.512;2023-07-13T03:01:50;7.45;;;4.50;;
75038;SDS011;63609;49.992;14.512;2023-07-13T03:04:18;8.00;;;4.78;;
75038;SDS011;63609;49.992;14.512;2023-07-13T03:06:46;7.80;;;4.20;;
75038;SDS011;63609;49.992;14.512;2023-07-13T03:09:14;6.28;;;4.18;;
75038;SDS011;63609;49.992;14.512;2023-07-13T03:11:47;8.40;;;4.40;;
75038;SDS011;63609;49.992;14.512;2023-07-13T03:14:21;9.68;;;4.35;;
75038;SDS011;63609;49.992;14.512;2023-07-13T03:16:50;8.90;;;4.47;;
75038;SDS011;63609;49.992;14.512;2023-07-13T03:19:21;8.55;;;5.00;;
75038;SDS011;63609;49.992;14.512;2023-07-13T03:21:50;8.90;;;4.57;;
75038;SDS011;63609;49.992;14.512;2023-07-13T03:24:17;7.68;;;4.57;;
75038;SDS011;63609;49.992;14.512;2023-07-13T03:26:44;6.50;;;4.40;;
75038;SDS011;63609;49.992;14.512;2023-07-13T03:29:11;8.43;;;4.50;;
75038;SDS011;63609;49.992;14.512;2023-07-13T03:31:39;6.97;;;4.30;;
75038;SDS011;63609;49.992;14.512;2023-07-13T03:34:06;6.53;;;4.72;;
75038;SDS011;63609;49.992;14.512;2023-07-13T03:36:35;8.30;;;5.30;;
75038;SDS011;63609;49.992;14.512;2023-07-13T03:39:05;9.10;;;4.47;;
75038;SDS011;63609;49.992;14.512;2023-07-13T03:41:43;8.35;;;5.03;;
75038;SDS011;63609;49.992;14.512;2023-07-13T03:44:15;8.80;;;4.85;;
75038;SDS011;63609;49.992;14.512;2023-07-13T03:46:44;7.03;;;4.88;;
75038;SDS011;63609;49.992;14.512;2023-07-13T03:49:13;7.68;;;4.20;;
75038;SDS011;63609;49.992;14.512;2023-07-13T03:51:39;10.68;;;4.63;;
75038;SDS011;63609;49.992;14.512;2023-07-13T03:54:06;7.55;;;4.78;;
75038;SDS011;63609;49.992;14.512;2023-07-13T03:56:33;8.13;;;4.93;;
75038;SDS011;63609;49.992;14.512;2023-07-13T03:59:02;10.27;;;4.82;;
75038;SDS011;63609;49.992;14.512;2023-07-13T04:01:30;8.60;;;5.22;;
75038;SDS011;63609;49.992;14.512;2023-07-13T04:03:58;8.85;;;5.20;;
75038;SDS011;63609;49.992;14.512;2023-07-13T04:08:58;8.07;;;5.10;;
75038;SDS011;63609;49.992;14.512;2023-07-13T04:11:29;10.35;;;5.60;;
75038;SDS011;63609;49.992;14.512;2023-07-13T04:13:59;5.75;;;3.83;;
75038;SDS011;63609;49.992;14.512;2023-07-13T04:16:26;6.85;;;3.45;;
75038;SDS011;63609;49.992;14.512;2023-07-13T04:18:54;6.32;;;3.17;;
75038;SDS011;63609;49.992;14.512;2023-07-13T04:21:27;5.00;;;2.50;;
75038;SDS011;63609;49.992;14.512;2023-07-13T04:23:55;3.55;;;2.15;;
75038;SDS011;63609;49.992;14.512;2023-07-13T04:26:23;4.78;;;2.33;;
75038;SDS011;63609;49.992;14.512;2023-07-13T04:28:50;4.20;;;2.22;;
75038;SDS011;63609;49.992;14.512;2023-07-13T04:31:18;3.63;;;2.05;;
75038;SDS011;63609;49.992;14.512;2023-07-13T04:33:45;3.70;;;2.45;;
75038;SDS011;63609;49.992;14.512;2023-07-13T04:36:14;4.40;;;2.13;;
75038;SDS011;63609;49.992;14.512;2023-07-13T04:38:43;4.93;;;2.80;;
75038;SDS011;63609;49.992;14.512;2023-07-13T04:41:10;5.03;;;2.15;;
75038;SDS011;63609;49.992;14.512;2023-07-13T04:43:38;3.45;;;2.13;;
75038;SDS011;63609;49.992;14.512;2023-07-13T04:46:06;5.00;;;2.33;;
75038;SDS011;63609;49.992;14.512;2023-07-13T04:48:35;5.35;;;2.70;;
75038;SDS011;63609;49.992;14.512;2023-07-13T04:51:02;5.60;;;2.78;;
75038;SDS011;63609;49.992;14.512;2023-07-13T04:53:30;3.45;;;2.72;;
75038;SDS011;63609;49.992;14.512;2023-07-13T04:55:58;3.47;;;2.08;;
75038;SDS011;63609;49.992;14.512;2023-07-13T04:58:26;3.33;;;2.15;;
75038;SDS011;63609;49.992;14.512;2023-07-13T05:00:58;3.78;;;2.28;;
75038;SDS011;63609;49.992;14.512;2023-07-13T05:03:28;5.57;;;2.35;;
75038;SDS011;63609;49.992;14.512;2023-07-13T05:05:59;4.00;;;2.30;;
75038;SDS011;63609;49.992;14.512;2023-07-13T05:08:32;4.28;;;2.28;;
75038;SDS011;63609;49.992;14.512;2023-07-13T05:11:00;4.95;;;1.95;;
75038;SDS011;63609;49.992;14.512;2023-07-13T05:13:28;5.57;;;2.72;;
75038;SDS011;63609;49.992;14.512;2023-07-13T05:15:57;4.72;;;2.55;;
75038;SDS011;63609;49.992;14.512;2023-07-13T05:18:26;3.88;;;2.20;;
75038;SDS011;63609;49.992;14.512;2023-07-13T05:20:57;3.70;;;2.08;;
75038;SDS011;63609;49.992;14.512;2023-07-13T05:23:26;4.32;;;2.40;;
75038;SDS011;63609;49.992;14.512;2023-07-13T05:25:53;4.00;;;2.28;;
75038;SDS011;63609;49.992;14.512;2023-07-13T05:28:20;6.22;;;2.35;;
75038;SDS011;63609;49.992;14.512;2023-07-13T05:30:47;3.80;;;2.20;;
75038;SDS011;63609;49.992;14.512;2023-07-13T05:33:15;6.35;;;2.30;;
75038;SDS011;63609;49.992;14.512;2023-07-13T05:35:42;4.80;;;2.40;;
75038;SDS011;63609;49.992;14.512;2023-07-13T05:38:09;4.70;;;3.10;;
75038;SDS011;63609;49.992;14.512;2023-07-13T05:40:35;4.82;;;2.13;;
75038;SDS011;63609;49.992;14.512;2023-07-13T05:43:03;4.30;;;2.67;;
75038;SDS011;63609;49.992;14.512;2023-07-13T05:45:30;8.43;;;2.63;;
75038;SDS011;63609;49.992;14.512;2023-07-13T05:47:57;4.18;;;2.60;;
75038;SDS011;63609;49.992;14.512;2023-07-13T05:50:25;5.50;;;2.63;;
75038;SDS011;63609;49.992;14.512;2023-07-13T05:52:53;4.22;;;2.35;;
75038;SDS011;63609;49.992;14.512;2023-07-13T05:55:20;5.20;;;2.65;;
75038;SDS011;63609;49.992;14.512;2023-07-13T05:57:47;3.67;;;2.13;;
75038;SDS011;63609;49.992;14.512;2023-07-13T06:00:14;5.70;;;2.55;;
75038;SDS011;63609;49.992;14.512;2023-07-13T06:02:41;6.50;;;2.83;;
75038;SDS011;63609;49.992;14.512;2023-07-13T06:05:09;4.85;;;2.60;;
75038;SDS011;63609;49.992;14.512;2023-07-13T06:07:37;4.13;;;2.88;;
75038;SDS011;63609;49.992;14.512;2023-07-13T06:10:04;4.97;;;2.33;;
75038;SDS011;63609;49.992;14.512;2023-07-13T06:12:32;5.15;;;2.58;;
75038;SDS011;63609;49.992;14.512;2023-07-13T06:14:58;4.22;;;2.35;;
75038;SDS011;63609;49.992;14.512;2023-07-13T06:17:27;3.40;;;2.40;;
75038;SDS011;63609;49.992;14.512;2023-07-13T06:19:54;6.18;;;2.88;;
75038;SDS011;63609;49.992;14.512;2023-07-13T06:22:21;5.90;;;2.35;;
75038;SDS011;63609;49.992;14.512;2023-07-13T06:24:48;4.50;;;2.25;;
75038;SDS011;63609;49.992;14.512;2023-07-13T06:27:15;5.38;;;2.42;;
75038;SDS011;63609;49.992;14.512;2023-07-13T06:29:42;4.68;;;2.80;;
75038;SDS011;63609;49.992;14.512;2023-07-13T06:32:11;5.53;;;2.80;;
75038;SDS011;63609;49.992;14.512;2023-07-13T06:34:38;4.63;;;2.72;;
75038;SDS011;63609;49.992;14.512;2023-07-13T06:37:09;7.80;;;2.60;;
75038;SDS011;63609;49.992;14.512;2023-07-13T06:39:36;3.85;;;2.60;;
75038;SDS011;63609;49.992;14.512;2023-07-13T06:42:03;3.67;;;2.03;;
75038;SDS011;63609;49.992;14.512;2023-07-13T06:44:32;3.33;;;2.30;;
75038;SDS011;63609;49.992;14.512;2023-07-13T06:46:59;4.03;;;2.40;;
75038;SDS011;63609;49.992;14.512;2023-07-13T06:49:26;5.15;;;2.50;;
75038;SDS011;63609;49.992;14.512;2023-07-13T06:51:53;4.93;;;2.58;;
75038;SDS011;63609;49.992;14.512;2023-07-13T06:54:20;6.82;;;2.70;;
75038;SDS011;63609;49.992;14.512;2023-07-13T06:56:47;3.88;;;2.47;;
75038;SDS011;63609;49.992;14.512;2023-07-13T06:59:14;4.88;;;2.67;;
75038;SDS011;63609;49.992;14.512;2023-07-13T07:01:41;3.92;;;2.28;;
75038;SDS011;63609;49.992;14.512;2023-07-13T07:04:08;4.28;;;2.35;;
75038;SDS011;63609;49.992;14.512;2023-07-13T07:06:35;4.50;;;2.35;;
75038;SDS011;63609;49.992;14.512;2023-07-13T07:09:02;5.05;;;2.30;;
75038;SDS011;63609;49.992;14.512;2023-07-13T07:11:29;4.07;;;2.20;;
75038;SDS011;63609;49.992;14.512;2023-07-13T07:13:56;3.47;;;1.80;;
75038;SDS011;63609;49.992;14.512;2023-07-13T07:16:24;4.45;;;2.00;;
75038;SDS011;63609;49.992;14.512;2023-07-13T07:18:51;2.95;;;2.03;;
75038;SDS011;63609;49.992;14.512;2023-07-13T07:21:18;4.53;;;2.40;;
75038;SDS011;63609;49.992;14.512;2023-07-13T07:23:45;4.32;;;2.08;;
75038;SDS011;63609;49.992;14.512;2023-07-13T07:26:12;4.30;;;2.25;;
75038;SDS011;63609;49.992;14.512;2023-07-13T07:28:39;3.63;;;2.03;;
75038;SDS011;63609;49.992;14.512;2023-07-13T07:31:11;3.15;;;2.08;;
75038;SDS011;63609;49.992;14.512;2023-07-13T07:33:41;4.00;;;1.90;;
75038;SDS011;63609;49.992;14.512;2023-07-13T07:36:08;5.07;;;2.20;;
75038;SDS011;63609;49.992;14.512;2023-07-13T07:38:38;3.58;;;1.85;;
75038;SDS011;63609;49.992;14.512;2023-07-13T07:41:05;6.32;;;2.60;;
75038;SDS011;63609;49.992;14.512;2023-07-13T07:43:35;3.92;;;2.10;;
75038;SDS011;63609;49.992;14.512;2023-07-13T07:46:03;6.13;;;2.10;;
75038;SDS011;63609;49.992;14.512;2023-07-13T07:48:30;5.80;;;2.22;;
75038;SDS011;63609;49.992;14.512;2023-07-13T07:50:58;6.43;;;2.50;;
75038;SDS011;63609;49.992;14.512;2023-07-13T07:53:25;3.33;;;1.75;;
75038;SDS011;63609;49.992;14.512;2023-07-13T07:55:52;3.10;;;1.83;;
75038;SDS011;63609;49.992;14.512;2023-07-13T07:58:22;3.10;;;1.70;;
75038;SDS011;63609;49.992;14.512;2023-07-13T08:00:51;6.20;;;2.00;;
75038;SDS011;63609;49.992;14.512;2023-07-13T08:03:21;2.97;;;1.70;;
75038;SDS011;63609;49.992;14.512;2023-07-13T08:05:54;2.92;;;1.65;;
75038;SDS011;63609;49.992;14.512;2023-07-13T08:08:24;3.30;;;1.88;;
75038;SDS011;63609;49.992;14.512;2023-07-13T08:10:51;3.55;;;2.00;;
75038;SDS011;63609;49.992;14.512;2023-07-13T08:13:25;4.55;;;1.80;;
75038;SDS011;63609;49.992;14.512;2023-07-13T08:15:52;4.63;;;1.80;;
75038;SDS011;63609;49.992;14.512;2023-07-13T08:18:21;5.00;;;1.90;;
75038;SDS011;63609;49.992;14.512;2023-07-13T08:20:47;5.05;;;1.90;;
75038;SDS011;63609;49.992;14.512;2023-07-13T08:23:14;3.53;;;1.73;;
75038;SDS011;63609;49.992;14.512;2023-07-13T08:25:50;4.00;;;2.13;;
75038;SDS011;63609;49.992;14.512;2023-07-13T08:28:20;4.72;;;2.08;;
75038;SDS011;63609;49.992;14.512;2023-07-13T08:30:48;3.97;;;1.83;;
75038;SDS011;63609;49.992;14.512;2023-07-13T08:33:16;4.15;;;2.10;;
75038;SDS011;63609;49.992;14.512;2023-07-13T08:35:47;4.85;;;2.28;;
75038;SDS011;63609;49.992;14.512;2023-07-13T08:38:15;3.53;;;1.70;;
75038;SDS011;63609;49.992;14.512;2023-07-13T08:40:45;3.97;;;1.80;;
75038;SDS011;63609;49.992;14.512;2023-07-13T08:43:25;5.18;;;1.67;;
75038;SDS011;63609;49.992;14.512;2023-07-13T08:46:13;2.88;;;1.75;;
75038;SDS011;63609;49.992;14.512;2023-07-13T08:51:50;3.00;;;1.70;;
75038;SDS011;63609;49.992;14.512;2023-07-13T08:54:32;4.05;;;2.40;;
75038;SDS011;63609;49.992;14.512;2023-07-13T08:57:08;2.75;;;1.50;;
75038;SDS011;63609;49.992;14.512;2023-07-13T08:59:39;8.13;;;2.00;;
75038;SDS011;63609;49.992;14.512;2023-07-13T09:04:42;2.25;;;1.38;;
75038;SDS011;63609;49.992;14.512;2023-07-13T09:10:18;4.35;;;1.80;;
75038;SDS011;63609;49.992;14.512;2023-07-13T09:12:54;3.33;;;1.90;;
75038;SDS011;63609;49.992;14.512;2023-07-13T09:15:31;3.35;;;1.70;;
75038;SDS011;63609;49.992;14.512;2023-07-13T09:18:07;4.90;;;2.00;;
75038;SDS011;63609;49.992;14.512;2023-07-13T09:23:16;3.80;;;1.75;;
75038;SDS011;63609;49.992;14.512;2023-07-13T09:25:47;4.18;;;1.30;;
75038;SDS011;63609;49.992;14.512;2023-07-13T09:28:18;3.25;;;1.75;;
75038;SDS011;63609;49.992;14.512;2023-07-13T09:33:39;2.70;;;1.13;;
75038;SDS011;63609;49.992;14.512;2023-07-13T09:39:25;2.70;;;1.40;;
75038;SDS011;63609;49.992;14.512;2023-07-13T09:45:06;3.42;;;1.40;;
75038;SDS011;63609;49.992;14.512;2023-07-13T09:47:32;2.90;;;1.60;;
75038;SDS011;63609;49.992;14.512;2023-07-13T09:50:15;5.93;;;1.67;;
75038;SDS011;63609;49.992;14.512;2023-07-13T09:52:46;4.78;;;1.67;;
75038;SDS011;63609;49.992;14.512;2023-07-13T09:55:25;4.32;;;1.58;;
75038;SDS011;63609;49.992;14.512;2023-07-13T09:57:55;5.55;;;1.80;;
75038;SDS011;63609;49.992;14.512;2023-07-13T10:00:26;3.40;;;1.60;;
75038;SDS011;63609;49.992;14.512;2023-07-13T10:02:59;2.72;;;1.55;;
75038;SDS011;63609;49.992;14.512;2023-07-13T10:05:43;3.75;;;1.60;;
75038;SDS011;63609;49.992;14.512;2023-07-13T10:10:52;2.92;;;1.23;;
75038;SDS011;63609;49.992;14.512;2023-07-13T10:13:33;4.45;;;1.30;;
75038;SDS011;63609;49.992;14.512;2023-07-13T10:16:07;5.80;;;1.48;;
75038;SDS011;63609;49.992;14.512;2023-07-13T10:18:43;3.60;;;1.13;;
75038;SDS011;63609;49.992;14.512;2023-07-13T10:21:21;2.50;;;1.27;;
75038;SDS011;63609;49.992;14.512;2023-07-13T10:24:22;3.28;;;1.23;;
75038;SDS011;63609;49.992;14.512;2023-07-13T10:26:55;1.90;;;1.10;;
75038;SDS011;63609;49.992;14.512;2023-07-13T10:29:34;4.18;;;1.70;;
75038;SDS011;63609;49.992;14.512;2023-07-13T10:32:08;3.30;;;1.50;;
75038;SDS011;63609;49.992;14.512;2023-07-13T10:34:38;2.72;;;1.40;;
75038;SDS011;63609;49.992;14.512;2023-07-13T10:37:06;3.10;;;1.60;;
75038;SDS011;63609;49.992;14.512;2023-07-13T10:39:42;3.72;;;1.48;;
75038;SDS011;63609;49.992;14.512;2023-07-13T10:42:11;4.22;;;1.70;;
75038;SDS011;63609;49.992;14.512;2023-07-13T10:44:50;2.45;;;1.42;;
75038;SDS011;63609;49.992;14.512;2023-07-13T10:47:17;2.80;;;1.58;;
75038;SDS011;63609;49.992;14.512;2023-07-13T10:49:44;3.13;;;1.80;;
75038;SDS011;63609;49.992;14.512;2023-07-13T10:58:34;3.72;;;1.77;;
75038;SDS011;63609;49.992;14.512;2023-07-13T11:09:07;2.63;;;1.50;;
75038;SDS011;63609;49.992;14.512;2023-07-13T11:11:46;4.15;;;1.90;;
75038;SDS011;63609;49.992;14.512;2023-07-13T11:16:57;3.03;;;1.60;;
75038;SDS011;63609;49.992;14.512;2023-07-13T11:19:26;5.25;;;1.80;;
75038;SDS011;63609;49.992;14.512;2023-07-13T11:32:51;3.55;;;1.58;;
75038;SDS011;63609;49.992;14.512;2023-07-13T11:41:01;2.70;;;1.52;;
75038;SDS011;63609;49.992;14.512;2023-07-13T11:43:30;3.60;;;1.50;;
75038;SDS011;63609;49.992;14.512;2023-07-13T11:49:19;3.97;;;1.70;;
75038;SDS011;63609;49.992;14.512;2023-07-13T11:54:31;109.88;;;13.13;;
75038;SDS011;63609;49.992;14.512;2023-07-13T11:57:19;5.65;;;1.60;;
75038;SDS011;63609;49.992;14.512;2023-07-13T11:59:54;8.18;;;2.20;;
75038;SDS011;63609;49.992;14.512;2023-07-13T12:02:29;5.57;;;1.85;;
75038;SDS011;63609;49.992;14.512;2023-07-13T12:05:03;4.05;;;1.70;;
75038;SDS011;63609;49.992;14.512;2023-07-13T12:07:45;4.05;;;1.80;;
75038;SDS011;63609;49.992;14.512;2023-07-13T12:10:17;5.03;;;1.80;;
75038;SDS011;63609;49.992;14.512;2023-07-13T12:12:47;2.85;;;1.48;;
75038;SDS011;63609;49.992;14.512;2023-07-13T12:15:23;3.30;;;1.50;;
75038;SDS011;63609;49.992;14.512;2023-07-13T12:17:55;2.45;;;1.50;;
75038;SDS011;63609;49.992;14.512;2023-07-13T12:20:27;2.92;;;1.42;;
75038;SDS011;63609;49.992;14.512;2023-07-13T12:22:56;3.15;;;1.50;;
75038;SDS011;63609;49.992;14.512;2023-07-13T12:25:24;3.33;;;1.75;;
75038;SDS011;63609;49.992;14.512;2023-07-13T12:27:52;3.60;;;1.90;;
75038;SDS011;63609;49.992;14.512;2023-07-13T12:30:30;3.50;;;1.50;;
75038;SDS011;63609;49.992;14.512;2023-07-13T12:33:06;3.58;;;1.52;;
75038;SDS011;63609;49.992;14.512;2023-07-13T12:35:41;3.80;;;1.75;;
75038;SDS011;63609;49.992;14.512;2023-07-13T12:38:12;3.58;;;1.73;;
75038;SDS011;63609;49.992;14.512;2023-07-13T12:40:40;2.88;;;1.50;;
75038;SDS011;63609;49.992;14.512;2023-07-13T12:43:13;2.35;;;1.35;;
75038;SDS011;63609;49.992;14.512;2023-07-13T12:48:42;3.83;;;1.65;;
75038;SDS011;63609;49.992;14.512;2023-07-13T12:51:27;4.80;;;2.10;;
75038;SDS011;63609;49.992;14.512;2023-07-13T12:54:05;3.60;;;1.50;;
75038;SDS011;63609;49.992;14.512;2023-07-13T12:56:39;3.88;;;1.40;;
75038;SDS011;63609;49.992;14.512;2023-07-13T12:59:09;3.72;;;1.50;;
75038;SDS011;63609;49.992;14.512;2023-07-13T13:01:45;2.97;;;1.33;;
75038;SDS011;63609;49.992;14.512;2023-07-13T13:04:13;2.40;;;1.33;;
75038;SDS011;63609;49.992;14.512;2023-07-13T13:06:40;2.38;;;1.40;;
75038;SDS011;63609;49.992;14.512;2023-07-13T13:09:11;4.18;;;1.52;;
75038;SDS011;63609;49.992;14.512;2023-07-13T13:11:40;5.32;;;1.80;;
75038;SDS011;63609;49.992;14.512;2023-07-13T13:14:08;3.72;;;1.60;;
75038;SDS011;63609;49.992;14.512;2023-07-13T13:16:37;2.92;;;1.45;;
75038;SDS011;63609;49.992;14.512;2023-07-13T13:19:25;3.15;;;1.77;;
75038;SDS011;63609;49.992;14.512;2023-07-13T13:21:55;2.53;;;1.73;;
75038;SDS011;63609;49.992;14.512;2023-07-13T13:24:25;3.40;;;1.52;;
75038;SDS011;63609;49.992;14.512;2023-07-13T13:26:54;3.60;;;1.50;;
75038;SDS011;63609;49.992;14.512;2023-07-13T13:29:26;3.33;;;1.60;;
75038;SDS011;63609;49.992;14.512;2023-07-13T13:31:54;3.15;;;1.50;;
75038;SDS011;63609;49.992;14.512;2023-07-13T13:34:22;2.85;;;1.60;;
75038;SDS011;63609;49.992;14.512;2023-07-13T13:36:52;2.83;;;1.50;;
75038;SDS011;63609;49.992;14.512;2023-07-13T13:39:28;3.03;;;1.70;;
75038;SDS011;63609;49.992;14.512;2023-07-13T13:41:59;4.80;;;1.48;;
75038;SDS011;63609;49.992;14.512;2023-07-13T13:44:26;3.30;;;1.50;;
75038;SDS011;63609;49.992;14.512;2023-07-13T13:46:54;4.10;;;1.45;;
75038;SDS011;63609;49.992;14.512;2023-07-13T13:49:24;1.95;;;1.40;;
75038;SDS011;63609;49.992;14.512;2023-07-13T13:51:52;2.92;;;1.55;;
75038;SDS011;63609;49.992;14.512;2023-07-13T13:54:21;2.10;;;1.45;;
75038;SDS011;63609;49.992;14.512;2023-07-13T13:56:49;2.67;;;1.83;;
75038;SDS011;63609;49.992;14.512;2023-07-13T13:59:18;3.25;;;1.80;;
75038;SDS011;63609;49.992;14.512;2023-07-13T14:01:46;3.13;;;1.40;;
75038;SDS011;63609;49.992;14.512;2023-07-13T14:04:19;2.85;;;1.70;;
75038;SDS011;63609;49.992;14.512;2023-07-13T14:06:48;4.45;;;1.73;;
75038;SDS011;63609;49.992;14.512;2023-07-13T14:09:17;4.03;;;1.70;;
75038;SDS011;63609;49.992;14.512;2023-07-13T14:11:46;2.80;;;1.65;;
75038;SDS011;63609;49.992;14.512;2023-07-13T14:14:17;4.53;;;1.52;;
75038;SDS011;63609;49.992;14.512;2023-07-13T14:16:49;2.53;;;1.35;;
75038;SDS011;63609;49.992;14.512;2023-07-13T14:19:21;3.75;;;1.77;;
75038;SDS011;63609;49.992;14.512;2023-07-13T14:21:48;3.03;;;1.58;;
75038;SDS011;63609;49.992;14.512;2023-07-13T14:24:16;2.30;;;1.50;;
75038;SDS011;63609;49.992;14.512;2023-07-13T14:26:46;2.85;;;1.50;;
75038;SDS011;63609;49.992;14.512;2023-07-13T14:29:18;6.03;;;1.60;;
75038;SDS011;63609;49.992;14.512;2023-07-13T14:31:50;3.50;;;1.65;;
75038;SDS011;63609;49.992;14.512;2023-07-13T14:34:17;3.13;;;1.60;;
75038;SDS011;63609;49.992;14.512;2023-07-13T14:36:45;2.88;;;1.40;;
75038;SDS011;63609;49.992;14.512;2023-07-13T14:39:24;4.10;;;1.50;;
75038;SDS011;63609;49.992;14.512;2023-07-13T14:41:53;4.63;;;1.52;;
75038;SDS011;63609;49.992;14.512;2023-07-13T14:44:23;8.18;;;1.77;;
75038;SDS011;63609;49.992;14.512;2023-07-13T14:46:52;5.20;;;1.58;;
75038;SDS011;63609;49.992;14.512;2023-07-13T14:49:30;4.63;;;1.80;;
75038;SDS011;63609;49.992;14.512;2023-07-13T14:52:15;3.92;;;1.65;;
75038;SDS011;63609;49.992;14.512;2023-07-13T14:54:45;3.38;;;1.50;;
75038;SDS011;63609;49.992;14.512;2023-07-13T14:57:13;3.13;;;1.42;;
75038;SDS011;63609;49.992;14.512;2023-07-13T14:59:41;2.83;;;1.58;;
75038;SDS011;63609;49.992;14.512;2023-07-13T15:04:44;5.07;;;1.77;;
75038;SDS011;63609;49.992;14.512;2023-07-13T15:07:11;4.28;;;1.58;;
75038;SDS011;63609;49.992;14.512;2023-07-13T15:09:42;3.17;;;1.45;;
75038;SDS011;63609;49.992;14.512;2023-07-13T15:12:09;3.28;;;1.58;;
75038;SDS011;63609;49.992;14.512;2023-07-13T15:14:36;2.85;;;1.80;;
75038;SDS011;63609;49.992;14.512;2023-07-13T15:17:03;2.92;;;1.65;;
75038;SDS011;63609;49.992;14.512;2023-07-13T15:19:31;3.63;;;1.70;;
75038;SDS011;63609;49.992;14.512;2023-07-13T15:21:58;4.82;;;1.83;;
75038;SDS011;63609;49.992;14.512;2023-07-13T15:24:25;4.30;;;1.60;;
75038;SDS011;63609;49.992;14.512;2023-07-13T15:26:53;6.30;;;1.60;;
75038;SDS011;63609;49.992;14.512;2023-07-13T15:29:19;2.72;;;1.55;;
75038;SDS011;63609;49.992;14.512;2023-07-13T15:31:46;4.57;;;1.60;;
75038;SDS011;63609;49.992;14.512;2023-07-13T15:34:14;4.07;;;1.33;;
75038;SDS011;63609;49.992;14.512;2023-07-13T15:36:45;3.92;;;1.67;;
75038;SDS011;63609;49.992;14.512;2023-07-13T15:39:15;3.00;;;1.70;;
75038;SDS011;63609;49.992;14.512;2023-07-13T15:41:43;2.85;;;1.63;;
75038;SDS011;63609;49.992;14.512;2023-07-13T15:44:27;3.97;;;1.70;;
75038;SDS011;63609;49.992;14.512;2023-07-13T15:46:56;5.45;;;1.90;;
75038;SDS011;63609;49.992;14.512;2023-07-13T15:49:27;2.70;;;1.70;;
75038;SDS011;63609;49.992;14.512;2023-07-13T15:51:54;2.17;;;1.50;;
75038;SDS011;63609;49.992;14.512;2023-07-13T15:54:21;3.53;;;1.88;;
75038;SDS011;63609;49.992;14.512;2023-07-13T15:56:52;3.33;;;1.58;;
75038;SDS011;63609;49.992;14.512;2023-07-13T15:59:22;3.50;;;1.60;;
75038;SDS011;63609;49.992;14.512;2023-07-13T16:01:49;4.85;;;1.70;;
75038;SDS011;63609;49.992;14.512;2023-07-13T16:04:16;3.65;;;1.88;;
75038;SDS011;63609;49.992;14.512;2023-07-13T16:06:46;4.05;;;1.88;;